CYVM/YVM METAR and TAF weather

Enter ICAO airport designator
Station Type Date Time Source
CYVM METAR 2020/10/20 17:00 UTC NOAA

CYVM 201700Z 17002KT 15SM FEW100 FEW180 FEW210 SCT250 M03/M10 A2966 RMK AC1AC1CC1CI2 CC TR SLP046


Station Type Date Time Source
CYVM Decoded METAR 2020/10/20 17:00 UTC NOAA

Broughton Island Airport, Canada (CYVM) 67-33N 064-02W
Oct 20, 2020 - 01:00 PM EDT / 2020.10.20 1700 UTC
Wind: from the S (170 degrees) at 2 MPH (2 KT):0
Visibility: 15 mile(s):0
Sky conditions: partly cloudy
Temperature: 26 F (-3 C)
Dew Point: 14 F (-10 C)
Relative Humidity: 58%
Pressure (altimeter): 29.66 in. Hg (1004 hPa)
ob: CYVM 201700Z 17002KT 15SM FEW100 FEW180 FEW210 SCT250 M03/M10 A2966 RMK AC1AC1CC1CI2 CC TR SLP046
cycle: 17

Station Type Date Time Source
CYVM TAF 2020/10/20 13:48 UTC NOAA

TAF CYVM 201238Z 2013/2101 20007KT P6SM FEW040 BKN150
RMK FCST BASED ON AUTO OBS. NXT FCST BY 201900Z

Example: see airport list